Time;durP1;ratioP1;P1;durP2;ratioP2;P2;SDS_P1;SDS_P2;PMS_P1;PMS_P2;Temp;Humidity;BMP_temperature;BMP_pressure;BME280_temperature;BME280_humidity;BME280_pressure;Samples;Min_cycle;Max_cycle;Signal;HPM_P1;HPM_P2
2021/08/11 00:01:07;;;;;;;5.00;4.50;;;17.90;99.90;;;;;;4993233;28;20503;-51
2021/08/11 00:03:33;;;;;;;4.40;4.00;;;17.90;99.90;;;;;;4993574;28;20452;-51
2021/08/11 00:06:01;;;;;;;7.17;4.00;;;17.80;99.90;;;;;;4993066;28;20446;-50
2021/08/11 00:08:28;;;;;;;6.13;4.43;;;17.80;99.90;;;;;;4993171;28;20438;-51
2021/08/11 00:10:55;;;;;;;5.20;4.30;;;17.80;99.90;;;;;;4993123;28;20462;-51
2021/08/11 00:13:23;;;;;;;6.03;4.23;;;17.70;99.90;;;;;;4993327;28;20446;-51
2021/08/11 00:15:50;;;;;;;6.20;4.57;;;17.80;99.90;;;;;;4993311;28;20430;-51
2021/08/11 00:18:17;;;;;;;5.60;4.27;;;17.70;99.90;;;;;;4992733;28;20430;-51
2021/08/11 00:20:43;;;;;;;4.87;3.93;;;17.70;99.90;;;;;;4992978;28;21042;-50
2021/08/11 00:23:10;;;;;;;4.50;4.10;;;17.70;99.90;;;;;;4992984;28;20919;-51
2021/08/11 00:25:37;;;;;;;6.83;5.20;;;17.70;99.90;;;;;;4993002;28;20444;-51
2021/08/11 00:28:04;;;;;;;4.50;4.00;;;17.80;99.90;;;;;;4992600;28;20436;-51
2021/08/11 00:30:32;;;;;;;4.77;3.53;;;17.80;99.90;;;;;;4991515;28;20971;-51
2021/08/11 00:33:00;;;;;;;4.20;3.73;;;17.60;99.90;;;;;;4975224;28;20447;-51
2021/08/11 00:35:27;;;;;;;3.30;2.97;;;17.90;99.90;;;;;;4975428;28;20460;-51
2021/08/11 00:37:55;;;;;;;4.30;3.37;;;17.90;99.90;;;;;;4975053;28;20494;-51
2021/08/11 00:40:25;;;;;;;6.40;3.93;;;17.90;99.90;;;;;;4975459;28;20509;-50
2021/08/11 00:42:52;;;;;;;4.10;3.33;;;17.90;99.90;;;;;;4975227;28;20542;-51
2021/08/11 00:45:18;;;;;;;6.00;3.37;;;17.90;99.90;;;;;;4992780;28;20442;-50
2021/08/11 00:47:50;;;;;;;3.63;3.07;;;17.90;99.90;;;;;;4974931;28;20849;-51
2021/08/11 00:50:18;;;;;;;5.23;3.50;;;17.90;99.90;;;;;;4975163;28;20459;-51
2021/08/11 00:52:47;;;;;;;4.47;3.20;;;17.90;99.90;;;;;;4975555;28;21091;-49
2021/08/11 00:55:16;;;;;;;3.73;3.37;;;17.80;99.90;;;;;;4992681;28;20982;-49
2021/08/11 00:57:47;;;;;;;4.50;3.67;;;17.80;99.90;;;;;;4974673;28;20461;-49
2021/08/11 01:00:17;;;;;;;5.30;4.10;;;17.80;99.90;;;;;;4974746;28;20465;-49
2021/08/11 01:02:45;;;;;;;4.70;4.00;;;17.70;99.90;;;;;;4974632;28;20476;-49
2021/08/11 01:05:19;;;;;;;5.70;4.43;;;17.70;99.90;;;;;;4974616;28;20457;-49
2021/08/11 01:07:49;;;;;;;5.87;4.53;;;17.60;99.90;;;;;;4974832;28;20455;-49
2021/08/11 01:10:17;;;;;;;6.47;4.23;;;17.60;99.90;;;;;;4975252;28;20908;-49
2021/08/11 01:12:44;;;;;;;6.00;5.13;;;17.60;99.90;;;;;;4974714;28;20511;-49
2021/08/11 01:15:11;;;;;;;5.60;4.60;;;17.50;99.90;;;;;;4974583;28;20452;-49
2021/08/11 01:17:38;;;;;;;6.33;4.97;;;17.50;99.90;;;;;;4974439;28;20899;-49
2021/08/11 01:20:06;;;;;;;5.10;4.17;;;17.50;99.90;;;;;;4974729;28;20520;-49
2021/08/11 01:22:41;;;;;;;6.10;5.40;;;17.50;99.90;;;;;;4974633;28;20564;-50
2021/08/11 01:25:13;;;;;;;6.30;5.00;;;17.50;99.90;;;;;;4974766;28;20458;-49
2021/08/11 01:28:26;;;;;;;6.90;5.20;;;17.40;99.90;;;;;;4974354;28;20830;-49
2021/08/11 01:31:00;;;;;;;5.60;5.03;;;17.40;99.90;;;;;;4974442;28;21029;-49
2021/08/11 01:33:50;;;;;;;6.43;5.43;;;17.40;99.90;;;;;;4974851;28;20456;-49
2021/08/11 01:36:30;;;;;;;5.90;5.13;;;17.40;99.90;;;;;;4974214;28;20485;-49
2021/08/11 01:39:03;;;;;;;7.10;5.40;;;17.30;99.90;;;;;;4974752;28;20449;-49
2021/08/11 01:41:37;;;;;;;6.27;5.20;;;17.30;99.90;;;;;;4974610;28;21006;-49
2021/08/11 01:44:07;;;;;;;6.17;5.53;;;17.30;99.90;;;;;;4974829;28;20492;-49
2021/08/11 01:46:39;;;;;;;6.90;6.03;;;17.30;99.90;;;;;;4974092;28;20455;-49
2021/08/11 01:49:09;;;;;;;6.53;5.67;;;17.30;99.90;;;;;;4974381;28;20524;-50
2021/08/11 01:51:41;;;;;;;6.17;5.57;;;17.30;99.90;;;;;;4974401;28;20484;-50
2021/08/11 01:54:11;;;;;;;7.93;5.83;;;17.30;99.90;;;;;;4974436;28;21013;-49
2021/08/11 01:56:41;;;;;;;7.60;6.80;;;17.20;99.90;;;;;;4973843;28;20544;-50
2021/08/11 01:59:09;;;;;;;7.23;5.80;;;17.20;99.90;;;;;;4974542;28;20481;-50
2021/08/11 02:01:38;;;;;;;8.03;5.40;;;17.20;99.90;;;;;;4974329;28;20986;-49
2021/08/11 02:04:07;;;;;;;6.47;5.83;;;17.20;99.90;;;;;;4974408;28;20460;-49
2021/08/11 02:06:35;;;;;;;7.43;6.57;;;17.10;99.90;;;;;;4991457;28;20508;-49
2021/08/11 02:09:06;;;;;;;7.30;5.73;;;17.10;99.90;;;;;;4974472;28;20459;-49
2021/08/11 02:11:37;;;;;;;10.30;6.77;;;17.10;99.90;;;;;;4974342;28;20475;-49
2021/08/11 02:14:05;;;;;;;7.27;5.87;;;17.10;99.90;;;;;;4974519;28;20461;-49
2021/08/11 02:16:33;;;;;;;6.50;5.90;;;17.00;99.90;;;;;;4976147;28;20926;-49
2021/08/11 02:19:00;;;;;;;8.10;6.30;;;17.00;99.90;;;;;;4978157;28;20950;-50
2021/08/11 02:21:28;;;;;;;6.37;5.73;;;17.10;99.90;;;;;;4995347;28;20488;-50
2021/08/11 02:23:55;;;;;;;6.63;5.57;;;17.00;99.90;;;;;;4977920;28;20965;-50
2021/08/11 02:26:31;;;;;;;6.97;5.80;;;16.90;99.90;;;;;;4977692;28;20471;-49
2021/08/11 02:29:03;;;;;;;6.73;5.77;;;16.90;99.90;;;;;;4977998;28;20894;-49
2021/08/11 02:31:39;;;;;;;8.43;6.27;;;16.90;99.90;;;;;;4977667;28;20491;-48
2021/08/11 02:34:15;;;;;;;6.60;5.53;;;16.90;99.90;;;;;;4977630;28;20452;-49
2021/08/11 02:36:49;;;;;;;6.17;5.57;;;16.80;99.90;;;;;;4977849;28;20460;-49
2021/08/11 02:39:20;;;;;;;6.93;6.10;;;16.80;99.90;;;;;;4995235;28;20430;-49
2021/08/11 02:41:52;;;;;;;7.07;5.57;;;16.80;99.90;;;;;;4977461;28;20489;-48
2021/08/11 02:44:23;;;;;;;6.50;5.90;;;16.80;99.90;;;;;;4995140;28;20676;-48
2021/08/11 02:46:52;;;;;;;6.83;5.97;;;16.80;99.90;;;;;;4977128;28;20476;-49
2021/08/11 02:49:25;;;;;;;9.00;6.50;;;16.70;99.90;;;;;;4977406;28;20445;-48
2021/08/11 02:51:57;;;;;;;7.00;6.20;;;16.70;99.90;;;;;;4977199;28;20480;-49
2021/08/11 02:54:25;;;;;;;8.57;7.00;;;16.70;99.90;;;;;;4977289;28;20865;-48
2021/08/11 02:56:53;;;;;;;8.23;6.37;;;16.70;99.90;;;;;;4976741;28;20461;-49
2021/08/11 02:59:22;;;;;;;7.37;6.67;;;16.60;99.90;;;;;;4995092;28;20874;-49
2021/08/11 03:01:49;;;;;;;7.70;6.33;;;16.70;99.90;;;;;;4993087;28;20555;-50
2021/08/11 03:04:17;;;;;;;8.67;6.77;;;16.60;99.90;;;;;;4977202;28;20453;-50
2021/08/11 03:06:45;;;;;;;6.73;6.10;;;16.60;99.90;;;;;;4976895;28;20977;-49
2021/08/11 03:09:13;;;;;;;9.97;6.73;;;16.60;99.90;;;;;;4977016;28;20450;-49
2021/08/11 03:11:40;;;;;;;7.60;6.90;;;16.60;99.90;;;;;;4976942;28;20484;-49
2021/08/11 03:14:08;;;;;;;10.53;6.70;;;16.60;99.90;;;;;;4976900;28;20520;-49
2021/08/11 03:16:37;;;;;;;8.20;6.63;;;16.50;99.90;;;;;;4994041;28;20446;-49
2021/08/11 03:19:04;;;;;;;7.93;7.10;;;16.50;99.90;;;;;;4994217;28;20435;-49
2021/08/11 03:21:31;;;;;;;8.50;7.70;;;16.50;99.90;;;;;;4994076;28;20485;-48
2021/08/11 03:23:58;;;;;;;8.20;6.90;;;16.50;99.90;;;;;;4976989;28;20861;-49
2021/08/11 03:26:27;;;;;;;9.10;7.00;;;16.50;99.90;;;;;;4976002;28;20540;-48
2021/08/11 03:28:59;;;;;;;7.63;7.00;;;16.40;99.90;;;;;;4976834;28;20449;-49
2021/08/11 03:31:26;;;;;;;8.90;8.00;;;16.40;99.90;;;;;;4976465;28;20569;-49
2021/08/11 03:33:52;;;;;;;9.30;8.40;;;16.40;99.90;;;;;;4992838;28;20481;-48
2021/08/11 03:36:20;;;;;;;10.73;8.47;;;16.40;99.90;;;;;;4992489;28;20665;-48
2021/08/11 03:38:46;;;;;;;9.27;8.37;;;16.40;99.90;;;;;;4976579;28;20453;-48
2021/08/11 03:41:13;;;;;;;9.20;7.83;;;16.40;99.90;;;;;;4976458;28;20540;-49
2021/08/11 03:43:41;;;;;;;9.63;8.70;;;16.40;99.90;;;;;;4976453;28;20830;-48
2021/08/11 03:46:08;;;;;;;9.77;8.77;;;16.40;99.90;;;;;;4976211;28;20453;-49
2021/08/11 03:48:35;;;;;;;11.63;8.57;;;16.40;99.90;;;;;;4976323;28;20480;-49
2021/08/11 03:51:02;;;;;;;10.10;9.07;;;16.40;99.90;;;;;;4993699;28;20474;-51
2021/08/11 03:53:29;;;;;;;9.93;8.93;;;16.40;99.90;;;;;;4994008;28;20436;-48
2021/08/11 03:55:55;;;;;;;11.13;9.97;;;16.40;99.90;;;;;;4976097;28;21046;-49
2021/08/11 03:58:23;;;;;;;10.70;8.60;;;16.40;99.90;;;;;;4992101;28;20454;-49
2021/08/11 04:00:52;;;;;;;12.20;9.40;;;16.40;99.90;;;;;;4993676;28;20457;-49
2021/08/11 04:03:18;;;;;;;10.47;9.10;;;16.40;99.90;;;;;;4993456;28;20536;-49
2021/08/11 04:05:45;;;;;;;10.63;9.50;;;16.40;99.90;;;;;;4993286;28;20433;-50
2021/08/11 04:08:12;;;;;;;10.57;9.47;;;16.40;99.90;;;;;;4993024;28;20560;-49
2021/08/11 04:10:38;;;;;;;9.90;8.80;;;16.40;99.90;;;;;;4993539;28;20436;-49
2021/08/11 04:13:05;;;;;;;12.30;10.13;;;16.40;99.90;;;;;;4993572;28;20437;-49
2021/08/11 04:15:32;;;;;;;11.93;10.50;;;16.40;99.90;;;;;;4993130;28;20437;-49
2021/08/11 04:18:00;;;;;;;13.20;10.20;;;16.40;99.90;;;;;;4992765;28;20803;-49
2021/08/11 04:20:26;;;;;;;10.67;9.57;;;16.40;99.90;;;;;;4992913;28;20435;-49
2021/08/11 04:22:53;;;;;;;12.50;9.83;;;16.40;99.90;;;;;;4992951;28;20485;-49
2021/08/11 04:25:19;;;;;;;11.37;10.27;;;16.40;99.90;;;;;;4993372;28;20445;-49
2021/08/11 04:27:46;;;;;;;10.50;9.03;;;16.40;99.90;;;;;;4992639;28;20439;-49
2021/08/11 04:30:13;;;;;;;15.23;9.57;;;16.40;99.90;;;;;;4992928;28;20438;-50
2021/08/11 04:32:39;;;;;;;12.87;9.70;;;16.40;99.90;;;;;;4993097;28;20452;-48
2021/08/11 04:35:09;;;;;;;10.53;9.53;;;16.40;99.90;;;;;;4993329;28;20434;-48
2021/08/11 04:37:36;;;;;;;12.57;10.23;;;16.40;99.90;;;;;;4992199;28;20466;-49
2021/08/11 04:40:04;;;;;;;14.17;11.10;;;16.80;99.90;;;;;;4992746;28;20461;-49
2021/08/11 04:42:30;;;;;;;13.50;11.37;;;16.50;99.90;;;;;;4992823;28;20492;-49
2021/08/11 04:44:57;;;;;;;12.63;10.80;;;16.50;99.90;;;;;;4992624;28;20441;-51
2021/08/11 04:47:23;;;;;;;12.03;10.93;;;16.60;99.90;;;;;;4992183;28;20441;-49
2021/08/11 04:49:50;;;;;;;13.37;10.73;;;16.60;99.90;;;;;;4992424;28;20441;-49
2021/08/11 04:52:18;;;;;;;11.70;10.50;;;16.70;99.90;;;;;;4992191;28;20498;-49
2021/08/11 04:54:45;;;;;;;13.60;10.67;;;16.80;99.90;;;;;;4992238;28;20850;-49
2021/08/11 04:57:12;;;;;;;13.10;10.43;;;16.80;99.90;;;;;;4991933;28;20461;-49
2021/08/11 04:59:38;;;;;;;13.03;11.73;;;16.80;99.90;;;;;;4992159;28;20437;-49
2021/08/11 05:02:05;;;;;;;13.63;11.07;;;16.80;99.90;;;;;;4991996;28;21008;-49
2021/08/11 05:04:32;;;;;;;16.20;12.00;;;16.90;99.90;;;;;;4992186;28;20429;-49
2021/08/11 05:06:58;;;;;;;14.37;10.67;;;17.00;99.90;;;;;;4992254;28;20434;-50
2021/08/11 05:09:26;;;;;;;13.50;11.33;;;17.10;99.90;;;;;;4992455;28;20433;-49
2021/08/11 05:11:53;;;;;;;12.77;10.50;;;17.10;99.90;;;;;;4991866;28;20476;-49
2021/08/11 05:14:19;;;;;;;13.73;12.20;;;17.20;99.90;;;;;;4992507;28;20786;-49
2021/08/11 05:16:46;;;;;;;13.63;11.10;;;17.30;99.90;;;;;;4991932;28;20445;-52
2021/08/11 05:19:12;;;;;;;13.83;10.80;;;17.40;99.90;;;;;;4991359;28;20448;-48
2021/08/11 05:21:39;;;;;;;12.97;11.67;;;17.50;99.90;;;;;;4991330;28;20974;-49
2021/08/11 05:24:06;;;;;;;16.63;13.63;;;17.60;99.90;;;;;;4992023;28;20449;-49
2021/08/11 05:26:34;;;;;;;12.13;10.90;;;17.70;99.90;;;;;;4991645;28;20439;-49
2021/08/11 05:29:00;;;;;;;15.53;12.30;;;17.70;99.90;;;;;;4991302;28;20442;-51
2021/08/11 05:31:29;;;;;;;14.40;12.60;;;17.90;99.90;;;;;;4991367;28;20489;-49
2021/08/11 05:33:56;;;;;;;14.07;12.47;;;17.90;99.90;;;;;;4991756;28;20569;-49
2021/08/11 05:36:23;;;;;;;16.40;11.83;;;18.00;99.90;;;;;;4991029;28;20535;-50
2021/08/11 05:38:49;;;;;;;13.87;12.50;;;18.00;99.90;;;;;;4991810;28;20538;-49
2021/08/11 05:41:16;;;;;;;19.23;12.80;;;18.10;99.90;;;;;;4990500;28;20993;-50
2021/08/11 05:43:44;;;;;;;16.80;13.20;;;18.20;99.90;;;;;;4991167;28;20469;-49
2021/08/11 05:46:11;;;;;;;13.67;12.27;;;18.30;99.90;;;;;;4991150;28;20835;-49
2021/08/11 05:48:37;;;;;;;13.50;12.10;;;18.30;99.90;;;;;;4991525;28;20435;-49
2021/08/11 05:51:04;;;;;;;14.80;13.40;;;18.50;99.90;;;;;;4993652;28;20528;-50
2021/08/11 05:53:31;;;;;;;16.40;12.60;;;18.50;99.90;;;;;;4995378;28;20437;-50
2021/08/11 05:55:57;;;;;;;13.63;12.23;;;18.60;99.90;;;;;;4995146;28;20449;-50
2021/08/11 05:58:24;;;;;;;14.13;12.80;;;18.60;99.90;;;;;;4995032;28;20435;-49
2021/08/11 06:00:52;;;;;;;17.27;13.40;;;18.70;99.90;;;;;;4994677;28;20473;-49
2021/08/11 06:03:19;;;;;;;16.00;12.90;;;18.80;99.90;;;;;;4995158;28;20506;-50
2021/08/11 06:05:56;;;;;;;13.87;12.57;;;18.80;99.90;;;;;;4977734;28;20459;-49
2021/08/11 06:08:23;;;;;;;14.63;13.03;;;18.90;99.90;;;;;;4994492;28;20530;-50
2021/08/11 06:10:49;;;;;;;14.87;13.30;;;18.90;99.90;;;;;;4994849;28;20463;-49
2021/08/11 06:13:16;;;;;;;13.40;12.00;;;19.00;99.90;;;;;;4995088;28;20876;-50
2021/08/11 06:15:45;;;;;;;13.93;12.53;;;19.10;99.90;;;;;;4977225;28;20546;-50
2021/08/11 06:18:13;;;;;;;14.37;12.40;;;19.10;99.90;;;;;;4994783;28;20479;-50
2021/08/11 06:20:40;;;;;;;15.93;12.97;;;19.20;99.90;;;;;;4994854;28;20444;-51
2021/08/11 06:23:06;;;;;;;14.30;13.00;;;19.30;99.90;;;;;;4994684;28;21003;-50
2021/08/11 06:25:33;;;;;;;15.50;12.63;;;19.30;99.90;;;;;;4994958;28;20490;-49
2021/08/11 06:28:00;;;;;;;16.67;12.10;;;19.40;99.90;;;;;;4994184;28;20517;-49
2021/08/11 06:30:28;;;;;;;13.10;11.70;;;19.40;99.90;;;;;;4992844;28;20976;-51
2021/08/11 06:32:54;;;;;;;15.80;12.27;;;19.50;99.90;;;;;;4993834;28;20444;-49
2021/08/11 06:35:22;;;;;;;13.33;11.90;;;19.50;99.90;;;;;;4994737;28;20489;-50
2021/08/11 06:37:51;;;;;;;12.87;11.50;;;19.50;99.90;;;;;;4976401;28;20456;-49
2021/08/11 06:40:21;;;;;;;14.37;11.20;;;19.50;99.90;;;;;;4994254;28;20436;-49
2021/08/11 06:42:48;;;;;;;12.50;10.43;;;19.60;99.90;;;;;;4976304;28;20495;-49
2021/08/11 06:45:18;;;;;;;15.00;11.70;;;19.60;99.90;;;;;;4976983;28;20452;-49
2021/08/11 06:47:45;;;;;;;15.97;12.23;;;19.60;99.90;;;;;;4976292;28;20452;-49
2021/08/11 06:50:15;;;;;;;12.20;11.00;;;19.60;99.90;;;;;;4976098;28;20574;-49
2021/08/11 06:52:43;;;;;;;12.93;11.63;;;19.60;99.90;;;;;;5033825;23;20498;-57
2021/08/11 06:55:12;;;;;;;12.97;11.03;;;19.60;99.90;;;;;;5013326;28;20519;-56
2021/08/11 06:57:40;;;;;;;15.27;13.80;;;19.60;99.90;;;;;;5013375;28;20458;-57
2021/08/11 07:00:09;;;;;;;13.47;11.90;;;19.60;99.90;;;;;;5013577;28;20463;-56
2021/08/11 07:02:36;;;;;;;13.60;11.63;;;19.60;99.90;;;;;;5012647;28;20503;-58
2021/08/11 07:05:03;;;;;;;12.40;10.60;;;19.70;99.90;;;;;;5013600;28;20531;-55
2021/08/11 07:07:30;;;;;;;12.20;11.17;;;19.70;99.90;;;;;;5013134;28;20534;-57
2021/08/11 07:09:58;;;;;;;12.23;10.83;;;19.60;99.90;;;;;;5013146;28;20928;-55
2021/08/11 07:12:25;;;;;;;11.93;10.80;;;19.80;99.90;;;;;;5013233;28;20462;-56
2021/08/11 07:14:52;;;;;;;12.07;10.90;;;19.80;99.90;;;;;;5013023;28;20446;-55
2021/08/11 07:17:19;;;;;;;12.63;10.60;;;19.80;99.90;;;;;;5012760;28;20474;-55
2021/08/11 07:19:47;;;;;;;13.13;10.97;;;19.80;99.90;;;;;;5013341;28;20432;-55
2021/08/11 07:22:13;;;;;;;12.23;11.00;;;19.90;99.90;;;;;;5013549;28;20463;-55
2021/08/11 07:24:40;;;;;;;10.90;9.63;;;19.90;99.90;;;;;;5013149;28;20454;-55
2021/08/11 07:27:08;;;;;;;11.67;10.50;;;19.90;99.90;;;;;;5012726;28;20440;-56
2021/08/11 07:29:35;;;;;;;11.63;10.43;;;19.90;99.90;;;;;;5013081;28;20467;-58
2021/08/11 07:32:01;;;;;;;11.40;9.90;;;19.90;99.90;;;;;;5012931;28;20443;-56
2021/08/11 07:34:28;;;;;;;13.07;9.60;;;19.80;99.90;;;;;;4995207;28;20458;-56
2021/08/11 07:36:55;;;;;;;10.80;9.53;;;19.90;99.90;;;;;;5012093;28;20912;-57
2021/08/11 07:39:21;;;;;;;10.73;9.50;;;19.90;99.90;;;;;;5012486;28;20442;-55
2021/08/11 07:41:48;;;;;;;12.30;10.20;;;20.00;99.90;;;;;;5012832;28;20466;-55
2021/08/11 07:44:16;;;;;;;13.53;9.70;;;20.00;99.90;;;;;;5013147;28;20487;-55
2021/08/11 07:46:43;;;;;;;9.37;8.40;;;20.10;99.90;;;;;;5012537;28;20523;-55
2021/08/11 07:49:09;;;;;;;12.27;9.97;;;20.10;99.90;;;;;;5012303;28;20479;-56
2021/08/11 07:51:36;;;;;;;10.47;8.17;;;20.00;99.90;;;;;;5012069;28;20471;-56
2021/08/11 07:54:03;;;;;;;10.30;9.30;;;19.90;99.90;;;;;;5012101;28;20518;-54
2021/08/11 07:56:29;;;;;;;10.00;8.30;;;19.90;99.90;;;;;;5012434;28;20434;-53
2021/08/11 07:58:56;;;;;;;8.50;7.70;;;20.00;99.90;;;;;;5011506;28;20530;-55
2021/08/11 08:01:24;;;;;;;11.80;10.00;;;20.00;99.90;;;;;;5012273;28;20857;-55
2021/08/11 08:03:51;;;;;;;10.10;9.13;;;20.00;99.90;;;;;;5011880;28;20487;-55
2021/08/11 08:06:17;;;;;;;9.33;8.13;;;20.20;99.90;;;;;;5012085;28;20444;-54
2021/08/11 08:08:44;;;;;;;16.80;8.37;;;20.30;99.90;;;;;;5012973;28;20437;-54
2021/08/11 08:11:10;;;;;;;10.10;7.90;;;20.30;99.90;;;;;;5012340;28;20917;-54
2021/08/11 08:13:37;;;;;;;9.97;8.23;;;20.40;99.90;;;;;;5011372;28;20440;-54
2021/08/11 08:16:04;;;;;;;9.30;8.40;;;20.40;99.90;;;;;;5011957;28;20444;-54
2021/08/11 08:18:32;;;;;;;11.47;8.00;;;20.50;99.90;;;;;;5012197;28;20444;-56
2021/08/11 08:21:01;;;;;;;7.47;6.77;;;20.50;99.90;;;;;;5012140;28;20835;-54
2021/08/11 08:23:28;;;;;;;8.27;7.20;;;20.50;99.90;;;;;;5011810;28;20522;-55
2021/08/11 08:25:54;;;;;;;9.00;8.13;;;20.40;99.90;;;;;;5011822;28;21003;-55
2021/08/11 08:28:21;;;;;;;8.00;7.27;;;20.40;99.90;;;;;;5011707;28;20975;-55
2021/08/11 08:30:48;;;;;;;7.00;6.30;;;20.40;99.90;;;;;;5011745;28;20428;-55
2021/08/11 08:33:15;;;;;;;8.23;6.30;;;20.50;99.90;;;;;;5011555;28;20434;-54
2021/08/11 08:35:43;;;;;;;7.70;6.33;;;20.50;99.90;;;;;;5011812;28;20436;-55
2021/08/11 08:38:10;;;;;;;9.30;6.63;;;20.60;99.90;;;;;;5011342;28;20763;-55
2021/08/11 08:40:38;;;;;;;11.90;7.30;;;20.60;99.90;;;;;;5012021;28;20444;-54
2021/08/11 08:43:06;;;;;;;9.10;6.70;;;20.70;99.90;;;;;;5012074;28;20829;-55
2021/08/11 08:45:34;;;;;;;7.37;6.60;;;20.70;99.90;;;;;;5011635;28;20436;-55
2021/08/11 08:48:04;;;;;;;7.97;5.70;;;20.80;99.90;;;;;;5011492;28;20444;-56
2021/08/11 08:50:31;;;;;;;8.90;6.57;;;20.70;99.90;;;;;;5011617;28;20441;-55
2021/08/11 08:53:00;;;;;;;7.70;6.97;;;20.90;99.90;;;;;;5011656;28;20592;-55
2021/08/11 08:55:27;;;;;;;9.60;6.60;;;20.90;99.90;;;;;;5011841;28;20437;-56
2021/08/11 08:57:54;;;;;;;6.40;5.50;;;21.00;99.90;;;;;;4993291;28;20446;-55
2021/08/11 09:00:22;;;;;;;6.93;6.10;;;21.00;99.90;;;;;;5011450;28;20766;-56
2021/08/11 09:02:48;;;;;;;6.20;5.60;;;21.20;99.90;;;;;;5011492;28;20453;-56
2021/08/11 09:05:15;;;;;;;7.87;5.97;;;21.20;99.90;;;;;;5011175;28;20540;-55
2021/08/11 09:07:45;;;;;;;7.00;5.27;;;21.10;99.90;;;;;;4993511;28;20562;-55
2021/08/11 09:10:21;;;;;;;5.70;5.00;;;21.30;99.90;;;;;;5011476;28;20436;-55
2021/08/11 09:12:50;;;;;;;4.97;4.30;;;21.40;99.90;;;;;;5011194;28;20995;-55
2021/08/11 09:15:28;;;;;;;5.87;5.27;;;21.30;99.90;;;;;;5011281;28;20454;-55
2021/08/11 09:17:56;;;;;;;6.73;6.03;;;21.40;99.90;;;;;;5010902;28;20767;-54
2021/08/11 09:20:24;;;;;;;6.87;5.00;;;21.40;99.90;;;;;;5011201;28;20442;-54
2021/08/11 09:22:54;;;;;;;6.33;5.60;;;21.40;99.90;;;;;;5011967;28;20465;-55
2021/08/11 09:25:22;;;;;;;5.83;5.20;;;21.40;99.90;;;;;;5011027;28;20442;-54
2021/08/11 09:27:50;;;;;;;9.37;4.83;;;21.50;99.90;;;;;;5010619;28;20439;-54
2021/08/11 09:30:18;;;;;;;5.53;4.87;;;21.50;99.90;;;;;;5011154;28;20427;-55
2021/08/11 09:32:57;;;;;;;6.07;4.70;;;21.40;99.90;;;;;;5011261;28;20466;-55
2021/08/11 09:35:26;;;;;;;5.00;4.50;;;21.30;99.60;;;;;;5011147;28;20465;-53
2021/08/11 09:37:54;;;;;;;8.57;5.47;;;21.20;99.70;;;;;;5010680;28;20442;-55
2021/08/11 09:40:24;;;;;;;6.10;5.50;;;21.00;99.90;;;;;;5011222;28;20430;-54
2021/08/11 09:42:56;;;;;;;6.43;5.00;;;21.20;99.90;;;;;;5010653;28;20458;-55
2021/08/11 09:45:23;;;;;;;7.10;5.00;;;20.90;99.90;;;;;;5011078;28;20438;-55
2021/08/11 09:47:55;;;;;;;5.73;5.13;;;21.10;99.90;;;;;;5010429;28;20439;-53
2021/08/11 09:50:33;;;;;;;7.77;7.07;;;21.40;99.90;;;;;;5011159;28;20749;-54
2021/08/11 09:53:00;;;;;;;7.60;5.60;;;21.30;99.70;;;;;;5010938;28;20853;-54
2021/08/11 09:55:28;;;;;;;9.20;5.60;;;21.30;99.70;;;;;;5010848;28;20434;-54
2021/08/11 09:57:55;;;;;;;6.70;4.70;;;21.10;99.00;;;;;;5010295;28;20437;-56
2021/08/11 10:00:22;;;;;;;5.10;4.60;;;21.20;99.30;;;;;;5010804;28;20446;-55
2021/08/11 10:03:03;;;;;;;8.10;4.47;;;21.30;99.30;;;;;;5010797;28;20840;-55
2021/08/11 10:05:34;;;;;;;5.93;4.67;;;21.50;98.70;;;;;;5011435;28;20504;-55
2021/08/11 10:08:01;;;;;;;6.97;4.27;;;21.50;98.40;;;;;;5010630;28;20482;-55
2021/08/11 10:10:43;;;;;;;7.40;5.20;;;21.80;98.20;;;;;;5010743;28;20445;-55
2021/08/11 10:13:10;;;;;;;5.13;4.70;;;21.70;98.00;;;;;;5010803;28;20888;-55
2021/08/11 10:15:37;;;;;;;5.10;4.50;;;22.00;97.90;;;;;;5010706;28;20726;-55
2021/08/11 10:18:04;;;;;;;6.40;4.60;;;22.20;97.90;;;;;;5010721;28;20809;-54
2021/08/11 10:20:31;;;;;;;9.00;5.43;;;22.30;97.50;;;;;;5010769;28;20928;-55
2021/08/11 10:23:02;;;;;;;5.80;4.87;;;22.20;96.80;;;;;;5010715;28;20459;-54
2021/08/11 10:25:31;;;;;;;4.90;4.40;;;22.50;96.70;;;;;;5009869;28;20477;-55
2021/08/11 10:27:58;;;;;;;4.03;3.63;;;22.50;96.20;;;;;;5010164;28;20447;-54
2021/08/11 10:30:26;;;;;;;6.10;4.97;;;22.70;96.00;;;;;;5010277;28;20501;-55
2021/08/11 10:32:52;;;;;;;4.30;3.90;;;22.60;95.80;;;;;;5010505;28;20815;-55
2021/08/11 10:35:20;;;;;;;5.50;4.10;;;22.50;95.60;;;;;;5011416;28;20945;-54
2021/08/11 10:37:47;;;;;;;5.77;4.23;;;22.30;95.30;;;;;;5013042;28;20795;-54
2021/08/11 10:40:14;;;;;;;7.97;4.83;;;22.30;95.50;;;;;;5014551;28;20926;-54
2021/08/11 10:42:52;;;;;;;8.87;4.80;;;22.30;95.70;;;;;;5014141;28;20467;-55
2021/08/11 10:45:22;;;;;;;4.80;4.30;;;22.40;95.60;;;;;;5013575;28;20482;-55
2021/08/11 10:47:49;;;;;;;7.60;5.17;;;22.40;95.50;;;;;;5013675;28;20511;-55
2021/08/11 10:50:16;;;;;;;5.37;4.73;;;22.50;95.80;;;;;;5013473;28;20439;-54
2021/08/11 10:52:43;;;;;;;6.53;4.43;;;22.60;95.80;;;;;;5013582;28;21038;-55
2021/08/11 10:55:10;;;;;;;6.03;3.80;;;22.50;95.40;;;;;;5013890;28;20440;-55
2021/08/11 10:57:46;;;;;;;5.20;4.03;;;22.80;94.70;;;;;;5013818;28;20432;-55
2021/08/11 11:00:38;;;;;;;7.03;4.27;;;22.90;94.10;;;;;;5013905;28;20445;-54
2021/08/11 11:03:05;;;;;;;6.43;4.97;;;23.00;94.10;;;;;;5013832;28;21048;-54
2021/08/11 11:06:02;;;;;;;5.80;4.80;;;23.10;94.50;;;;;;5013803;28;20491;-54
2021/08/11 11:08:36;;;;;;;6.03;3.73;;;23.20;93.90;;;;;;5013600;28;20950;-54
2021/08/11 11:11:40;;;;;;;5.00;3.90;;;23.10;93.90;;;;;;5013574;28;20509;-55
2021/08/11 11:14:49;;;;;;;4.20;3.53;;;23.30;93.00;;;;;;5013235;28;20440;-54
2021/08/11 11:17:16;;;;;;;4.30;3.77;;;23.20;92.60;;;;;;5012711;28;20442;-55
2021/08/11 11:20:29;;;;;;;4.70;3.70;;;23.20;93.00;;;;;;5013118;28;20440;-54
2021/08/11 11:23:07;;;;;;;5.73;3.77;;;23.10;91.40;;;;;;5013554;28;20551;-54
2021/08/11 11:26:09;;;;;;;7.37;3.90;;;23.10;92.30;;;;;;5013009;28;20491;-54
2021/08/11 11:29:03;;;;;;;3.50;3.10;;;23.10;92.00;;;;;;5013162;28;20506;-57
2021/08/11 11:31:40;;;;;;;6.60;4.13;;;23.40;91.60;;;;;;5012896;28;20545;-55
2021/08/11 11:34:27;;;;;;;5.20;3.67;;;22.90;91.30;;;;;;5012832;28;20527;-56
2021/08/11 11:37:26;;;;;;;4.17;3.77;;;22.80;91.40;;;;;;5012417;28;20553;-54
2021/08/11 11:40:08;;;;;;;3.90;3.40;;;22.70;91.00;;;;;;5012737;28;20444;-56
2021/08/11 11:42:35;;;;;;;4.63;3.90;;;22.70;90.90;;;;;;5012240;28;20463;-54
2021/08/11 11:45:06;;;;;;;4.90;3.37;;;22.60;91.10;;;;;;5012967;28;20959;-55
2021/08/11 11:48:10;;;;;;;4.27;3.90;;;22.60;91.10;;;;;;5012421;28;20527;-55
2021/08/11 11:50:43;;;;;;;4.60;4.07;;;22.60;91.20;;;;;;5014482;28;20534;-55
2021/08/11 11:53:19;;;;;;;6.93;4.57;;;22.60;91.30;;;;;;5012581;28;20940;-54
2021/08/11 11:55:48;;;;;;;5.37;4.17;;;22.70;91.20;;;;;;5012655;28;20436;-55
2021/08/11 11:58:16;;;;;;;5.27;4.70;;;22.60;90.80;;;;;;5012398;28;20451;-55
2021/08/11 12:00:44;;;;;;;4.20;3.80;;;22.70;90.90;;;;;;5012377;28;20431;-54
2021/08/11 12:03:12;;;;;;;4.70;4.13;;;22.80;90.70;;;;;;5012443;28;20473;-54
2021/08/11 12:05:48;;;;;;;5.80;4.50;;;22.90;90.80;;;;;;5012207;28;20487;-54
2021/08/11 12:08:16;;;;;;;5.17;3.87;;;22.80;90.50;;;;;;5012573;28;20439;-54
2021/08/11 12:10:43;;;;;;;5.90;4.60;;;22.90;90.70;;;;;;5012868;28;20466;-54
2021/08/11 12:13:11;;;;;;;6.50;4.50;;;23.00;90.60;;;;;;5012893;28;20481;-54
2021/08/11 12:15:39;;;;;;;4.73;3.70;;;23.00;90.30;;;;;;5012213;28;20759;-54
2021/08/11 12:18:16;;;;;;;4.40;3.60;;;23.00;89.70;;;;;;5011611;28;20811;-54
2021/08/11 12:20:44;;;;;;;5.07;4.17;;;23.10;89.00;;;;;;5012169;28;20437;-54
2021/08/11 12:23:21;;;;;;;4.83;3.80;;;23.20;89.40;;;;;;5012085;28;21015;-56
2021/08/11 12:25:49;;;;;;;7.70;4.37;;;23.30;89.00;;;;;;5011636;28;20534;-55
2021/08/11 12:28:18;;;;;;;5.40;4.90;;;23.20;89.00;;;;;;5011175;28;20465;-55
2021/08/11 12:30:52;;;;;;;7.17;3.87;;;23.40;88.20;;;;;;5011654;28;20503;-55
2021/08/11 12:33:20;;;;;;;5.03;3.73;;;23.40;87.10;;;;;;5011713;28;20441;-55
2021/08/11 12:35:47;;;;;;;4.97;4.47;;;23.40;87.00;;;;;;5011651;28;20439;-55
2021/08/11 12:38:27;;;;;;;7.30;4.27;;;23.40;87.20;;;;;;5011403;28;20436;-56
2021/08/11 12:40:54;;;;;;;4.03;3.43;;;23.50;87.40;;;;;;5011663;28;20439;-55
2021/08/11 12:43:21;;;;;;;4.60;3.70;;;23.60;87.50;;;;;;5011963;28;20914;-54
2021/08/11 12:45:50;;;;;;;6.00;4.90;;;23.60;87.50;;;;;;5011974;28;20583;-55
2021/08/11 12:48:27;;;;;;;7.67;4.67;;;23.60;88.30;;;;;;5011440;28;20949;-54
2021/08/11 12:50:55;;;;;;;10.27;4.53;;;23.70;88.00;;;;;;5011131;28;20965;-55
2021/08/11 12:53:30;;;;;;;4.97;4.47;;;23.60;87.90;;;;;;5012115;28;20932;-55